MAUNA LOA HI US current weather conditions

sailwx.info

Wind from 017 at 10 knots gusting 20

Air temperature 18.3° C
Dewpoint 11.4° C

Last reported at 2015-Jul-07 03:34 UTC.
Time now 2015-Jul-07 04:36 UTC

Location: N 19°28' W 155°22'.
View on Google Maps.

See reports from other nearby stations

  
Tides and Currents Weather Stations Pressure Air Temp Water Temp Dewpoint Dewpoint Depression Visibility Wind Speed Wind Dir Waves Ship Positions
date/time (UTC)wind fromknots sea level pressurealtimeterstation pressurevisibilityair tempwater tempwave heightnotes
2015-Jul-07 03:34 017 10 gusting 20 18.3
2015-Jul-07 02:34 004 9 gusting 20 21.1
2015-Jul-07 01:34 021 6 gusting 17 23.3
2015-Jul-07 00:34 037 6 gusting 14 25.0
2015-Jul-06 23:34 024 6 gusting 17 26.1
2015-Jul-06 22:34 034 5 gusting 13 26.7
2015-Jul-06 21:34 008 5 gusting 15 26.7
2015-Jul-06 20:34 018 7 gusting 16 24.4
2015-Jul-06 19:34 020 9 gusting 19 20.0
2015-Jul-06 18:34 351 10 gusting 19 18.9
2015-Jul-06 17:34 015 6 gusting 15 18.3
2015-Jul-06 16:34 007 10 gusting 19 14.4
2015-Jul-06 15:34 008 4 gusting 8 10.0
2015-Jul-06 14:34 202 0 gusting 11 12.2
2015-Jul-06 13:34 283 2 gusting 11 12.8
2015-Jul-06 12:34 348 4 gusting 8 13.3
2015-Jul-06 11:34 337 3 gusting 7 10.6
2015-Jul-06 10:34 9.4
2015-Jul-06 09:34 251 3 gusting 5 10.0
2015-Jul-06 08:34 340 1 gusting 5 12.2
2015-Jul-06 07:34 348 0 gusting 6 10.6
2015-Jul-06 06:34 230 2 gusting 5 12.2
2015-Jul-06 05:34 227 0 gusting 6 15.0
2015-Jul-06 04:34 197 5 gusting 12 17.2
2015-Jul-06 03:34 189 4 gusting 13 20.0
2015-Jul-06 02:34 170 4 gusting 12 20.6
2015-Jul-06 01:34 184 6 gusting 16 23.3
2015-Jul-06 00:34 182 6 gusting 16 22.8
2015-Jul-05 23:34 192 9 gusting 21 23.9
2015-Jul-05 22:34 187 7 gusting 13 23.9
2015-Jul-05 21:34 148 6 gusting 11 24.4
2015-Jul-05 20:34 174 5 gusting 10 24.4
2015-Jul-05 19:34 033 5 gusting 13 25.0
2015-Jul-05 18:34 002 6 gusting 13 22.8
2015-Jul-05 17:34 010 3 gusting 9 20.0
2015-Jul-05 16:34 335 4 gusting 8 16.1
2015-Jul-05 15:34 314 5 gusting 10 12.2
2015-Jul-05 14:34 318 5 gusting 9 12.2
2015-Jul-05 13:34 333 4 gusting 8 10.0
2015-Jul-05 12:34 272 1 gusting 5 6.7
2015-Jul-05 11:34 7.2
2015-Jul-05 10:34 253 1 gusting 5 6.7
2015-Jul-05 09:34 275 3 gusting 4 7.8
2015-Jul-05 08:34 287 0 gusting 5 9.4
2015-Jul-05 07:34 201 2 gusting 7 11.7
2015-Jul-05 06:34 12.2
2015-Jul-05 05:34 158 2 gusting 5 15.0
2015-Jul-05 04:34 163 2 gusting 6 16.7